Time;durP1;ratioP1;P1;durP2;ratioP2;P2;SDS_P1;SDS_P2;PMS_P1;PMS_P2;Temp;Humidity;BMP_temperature;BMP_pressure;BME280_temperature;BME280_humidity;BME280_pressure;Samples;Min_cycle;Max_cycle;Signal;HPM_P1;HPM_P2
2021/12/31 00:01:40;;;;;;;0.80;0.80;;;;;;;14.93;72.16;99798.81;4882718;29;20252;-89
2021/12/31 00:04:08;;;;;;;0.80;0.70;;;;;;;14.83;72.57;99802.16;4898978;29;20247;-91
2021/12/31 00:06:36;;;;;;;0.73;0.70;;;;;;;14.91;72.26;99799.03;4883572;29;20238;-90
2021/12/31 00:09:04;;;;;;;0.53;0.53;;;;;;;14.87;72.36;99815.97;4899456;29;20237;-92
2021/12/31 00:11:31;;;;;;;1.03;0.63;;;;;;;14.78;72.70;99820.13;4883276;29;20237;-88
2021/12/31 00:13:57;;;;;;;0.63;0.63;;;;;;;14.95;72.03;99818.25;4883847;29;20251;-86
2021/12/31 00:16:24;;;;;;;0.60;0.60;;;;;;;14.85;72.13;99818.06;4883256;29;20241;-86
2021/12/31 00:18:53;;;;;;;0.63;0.63;;;;;;;14.88;71.87;99829.19;4866687;29;20240;-89
2021/12/31 00:21:20;;;;;;;0.50;0.50;;;;;;;14.78;72.37;99829.03;4882352;29;20530;-93
2021/12/31 00:23:47;;;;;;;0.60;0.60;;;;;;;14.71;72.84;99814.03;4882121;29;20245;-86
2021/12/31 00:26:13;;;;;;;0.60;0.60;;;;;;;14.75;72.34;99818.69;4881456;29;20244;-91
2021/12/31 00:28:40;;;;;;;1.37;0.60;;;;;;;14.82;71.55;99826.66;4882120;29;20237;-90
2021/12/31 00:31:07;;;;;;;0.90;0.70;;;;;;;14.84;71.07;99814.53;4866778;29;20709;-91
2021/12/31 00:33:34;;;;;;;0.93;0.50;;;;;;;14.75;71.10;99824.09;4898984;29;20238;-92
2021/12/31 00:36:01;;;;;;;0.50;0.50;;;;;;;14.79;71.29;99827.94;4882946;29;20544;-88
2021/12/31 00:38:27;;;;;;;0.70;0.50;;;;;;;14.72;71.34;99839.94;4900112;29;20261;-94
2021/12/31 00:40:54;;;;;;;0.50;0.50;;;;;;;14.82;70.69;99838.25;4898751;29;20323;-88
2021/12/31 00:43:21;;;;;;;0.50;0.50;;;;;;;14.80;70.27;99834.16;4883556;29;20236;-86
2021/12/31 00:45:48;;;;;;;0.40;0.40;;;;;;;14.84;70.14;99843.41;4883231;29;20312;-86
2021/12/31 00:48:20;;;;;;;0.40;0.40;;;;;;;14.93;69.55;99834.66;4883428;29;20242;-84
2021/12/31 00:50:56;;;;;;;0.50;0.50;;;;;;;14.83;69.57;99842.59;4901194;29;20237;-90
2021/12/31 00:53:23;;;;;;;0.50;0.50;;;;;;;14.82;69.51;99850.94;4883238;29;20707;-90
2021/12/31 00:55:50;;;;;;;0.40;0.40;;;;;;;14.80;69.84;99853.03;4882781;29;20292;-88
2021/12/31 00:58:17;;;;;;;0.43;0.43;;;;;;;14.72;69.79;99856.13;4882595;29;20262;-94
2021/12/31 01:00:44;;;;;;;0.50;0.50;;;;;;;14.72;69.88;99866.91;4883289;29;20236;-95
2021/12/31 01:03:11;;;;;;;0.47;0.47;;;;;;;14.73;69.72;99874.78;4883327;29;20313;-94
2021/12/31 01:05:38;;;;;;;0.60;0.60;;;;;;;14.50;70.19;99856.81;4867374;29;20229;-95
2021/12/31 01:08:05;;;;;;;0.50;0.50;;;;;;;14.63;69.83;99862.97;4897812;29;20701;-95
2021/12/31 01:10:31;;;;;;;1.30;0.40;;;;;;;14.57;69.70;99870.13;4883065;29;20645;-93
2021/12/31 01:12:59;;;;;;;0.70;0.70;;;;;;;14.58;70.10;99870.94;4899368;29;20331;-93
2021/12/31 01:15:44;;;;;;;0.97;0.37;;;;;;;14.66;69.50;99870.56;4882828;29;20323;-94
2021/12/31 01:20:39;;;;;;;0.57;0.40;;;;;;;14.52;69.66;99875.41;4898143;29;20239;-92
2021/12/31 01:23:08;;;;;;;0.50;0.50;;;;;;;14.57;69.60;99880.09;4882060;29;20237;-89
2021/12/31 01:25:36;;;;;;;0.40;0.40;;;;;;;14.65;68.60;99872.44;4883194;29;20233;-91
2021/12/31 01:28:04;;;;;;;0.50;0.43;;;;;;;14.65;68.69;99879.75;4882168;29;20228;-88
2021/12/31 01:30:31;;;;;;;0.70;0.43;;;;;;;14.46;69.57;99879.09;4882793;29;20391;-94
2021/12/31 01:32:58;;;;;;;0.40;0.40;;;;;;;14.28;69.93;99868.41;4882664;29;20247;-94
2021/12/31 01:35:25;;;;;;;0.50;0.50;;;;;;;14.18;70.57;99882.53;4882429;29;20240;-92
2021/12/31 01:37:51;;;;;;;0.63;0.40;;;;;;;14.08;70.79;99877.72;4851845;29;20240;-93
2021/12/31 01:40:18;;;;;;;0.50;0.50;;;;;;;14.26;70.20;99886.72;4881849;29;20323;-90
2021/12/31 01:42:45;;;;;;;0.63;0.47;;;;;;;14.27;70.21;99874.88;4882611;29;20232;-88
2021/12/31 01:45:15;;;;;;;1.10;0.70;;;;;;;14.21;70.58;99882.03;4899782;29;20238;-87
2021/12/31 01:48:07;;;;;;;0.87;0.60;;;;;;;14.18;70.44;99897.88;4883623;29;20248;-92
2021/12/31 01:50:35;;;;;;;1.23;0.60;;;;;;;13.93;71.50;99872.00;4898901;29;20234;-91
2021/12/31 01:53:03;;;;;;;0.60;0.50;;;;;;;14.04;70.99;99867.66;4883987;29;20595;-91
2021/12/31 01:55:32;;;;;;;0.97;0.83;;;;;;;14.11;70.89;99887.19;4899631;29;20236;-91
2021/12/31 01:58:01;;;;;;;0.40;0.40;;;;;;;13.94;71.06;99880.91;4867874;29;20284;-89
2021/12/31 02:00:28;;;;;;;1.43;0.60;;;;;;;13.72;71.65;99877.97;4881854;29;20328;-89
2021/12/31 02:02:58;;;;;;;0.50;0.40;;;;;;;13.78;72.12;99877.03;4882371;29;20652;-91
2021/12/31 02:05:35;;;;;;;1.37;0.60;;;;;;;13.90;71.50;99883.25;4906380;29;20256;-86
2021/12/31 02:08:05;;;;;;;0.93;0.43;;;;;;;13.84;71.55;99891.44;4915499;29;20239;-80
2021/12/31 02:14:18;;;;;;;0.93;0.47;;;;;;;13.59;71.95;99881.72;4916628;29;20238;-88
2021/12/31 02:16:45;;;;;;;0.50;0.50;;;;;;;13.57;72.38;99886.53;4908644;29;20219;-80
2021/12/31 02:19:48;;;;;;;0.83;0.50;;;;;;;13.46;72.19;99889.19;4934082;23;20233;-80
2021/12/31 02:26:11;;;;;;;0.70;0.70;;;;;;;13.39;72.43;99883.88;4963931;23;20233;-79
2021/12/31 02:29:36;;;;;;;0.80;0.60;;;;;;;13.34;72.95;99891.88;4958412;23;20246;-80
2021/12/31 02:33:50;;;;;;;0.43;0.43;;;;;;;13.40;72.65;99880.16;4972447;23;20225;-79
2021/12/31 02:37:02;;;;;;;0.70;0.70;;;;;;;13.50;71.71;99882.28;4968892;23;20208;-79
2021/12/31 02:40:39;;;;;;;0.50;0.50;;;;;;;13.48;71.81;99879.00;4975950;23;20216;-79
2021/12/31 02:47:24;;;;;;;0.40;0.40;;;;;;;13.31;72.40;99872.66;4946599;23;20225;-79
2021/12/31 02:50:45;;;;;;;0.57;0.50;;;;;;;13.17;72.58;99880.09;5056388;23;20272;-80
2021/12/31 02:54:16;;;;;;;0.60;0.60;;;;;;;13.00;72.82;99877.25;5053912;23;20228;-79
2021/12/31 02:57:41;;;;;;;0.60;0.50;;;;;;;13.07;72.92;99867.19;4962443;29;20218;-80
2021/12/31 03:01:00;;;;;;;1.73;0.40;;;;;;;13.10;72.37;99884.75;4966884;23;20258;-79
2021/12/31 03:03:52;;;;;;;0.40;0.40;;;;;;;12.98;73.04;99875.81;4945328;29;20178;-79
2021/12/31 03:07:21;;;;;;;0.50;0.50;;;;;;;12.94;73.34;99872.75;4957636;23;20221;-79
2021/12/31 03:10:40;;;;;;;0.80;0.40;;;;;;;13.01;72.84;99875.38;4962234;29;20233;-79
2021/12/31 03:13:51;;;;;;;0.60;0.40;;;;;;;13.01;72.79;99884.25;4953610;29;20225;-79
2021/12/31 03:17:15;;;;;;;0.60;0.50;;;;;;;12.98;72.56;99865.88;4976252;23;20293;-81
2021/12/31 03:20:14;;;;;;;1.07;0.50;;;;;;;12.92;73.17;99868.69;4975047;23;20225;-78
2021/12/31 03:23:11;;;;;;;0.77;0.40;;;;;;;12.79;73.55;99866.97;4954330;23;20234;-80
2021/12/31 03:26:38;;;;;;;0.63;0.40;;;;;;;12.77;73.53;99874.47;4939275;23;20234;-79
2021/12/31 03:29:42;;;;;;;0.63;0.63;;;;;;;12.65;73.84;99870.88;4961907;23;20263;-79
2021/12/31 03:32:17;;;;;;;0.60;0.60;;;;;;;12.71;73.39;99878.06;4975345;23;20295;-80
2021/12/31 03:36:07;;;;;;;0.50;0.50;;;;;;;12.65;73.92;99892.41;5056173;23;20217;-80
2021/12/31 03:39:20;;;;;;;0.60;0.60;;;;;;;12.72;74.09;99895.84;5063913;23;20297;31
2021/12/31 03:42:33;;;;;;;0.73;0.40;;;;;;;12.61;74.01;99897.41;4981849;23;20313;-79
2021/12/31 03:45:50;;;;;;;0.40;0.40;;;;;;;12.66;74.36;99891.34;4954595;23;20225;-78
2021/12/31 03:48:52;;;;;;;1.03;0.50;;;;;;;12.65;73.92;99890.53;4938691;23;20264;-80
2021/12/31 03:52:04;;;;;;;0.50;0.50;;;;;;;12.77;74.03;99895.97;4956311;23;20217;-79
2021/12/31 03:55:43;;;;;;;1.73;0.60;;;;;;;12.67;73.83;99895.69;4991995;23;20240;-79
2021/12/31 03:59:21;;;;;;;0.50;0.50;;;;;;;12.71;73.74;99888.81;4983630;23;20237;-82
2021/12/31 04:03:08;;;;;;;0.60;0.40;;;;;;;12.95;72.48;99897.78;4970026;29;20212;-80
2021/12/31 04:10:30;;;;;;;0.60;0.50;;;;;;;13.01;71.91;99888.81;4941725;29;20217;-80
2021/12/31 04:14:09;;;;;;;0.50;0.50;;;;;;;13.00;72.06;99884.47;4929030;23;20658;-79
2021/12/31 04:17:06;;;;;;;0.90;0.70;;;;;;;13.02;71.53;99877.81;4965441;23;20375;-80
2021/12/31 04:20:00;;;;;;;0.87;0.60;;;;;;;13.25;70.81;99893.22;4969939;23;20224;-80
2021/12/31 04:23:33;;;;;;;0.60;0.60;;;;;;;13.12;70.93;99879.97;4960003;23;20217;-82
2021/12/31 04:27:11;;;;;;;0.60;0.60;;;;;;;13.24;70.80;99883.53;4956277;23;20225;-80
2021/12/31 04:30:37;;;;;;;1.50;0.80;;;;;;;13.15;71.34;99882.22;4968121;23;20223;-80
2021/12/31 04:33:21;;;;;;;0.70;0.70;;;;;;;13.12;71.45;99896.94;4940853;29;20207;-79
2021/12/31 04:36:11;;;;;;;0.70;0.70;;;;;;;13.06;71.99;99889.78;4943402;23;20300;-80
2021/12/31 04:39:38;;;;;;;1.30;0.60;;;;;;;13.03;72.36;99889.41;4965443;23;20233;-80
2021/12/31 04:42:44;;;;;;;1.70;0.70;;;;;;;13.08;72.25;99898.41;4961743;29;20182;-80
2021/12/31 04:45:39;;;;;;;0.67;0.67;;;;;;;13.01;72.18;99883.44;4974261;23;20241;-80
2021/12/31 04:48:51;;;;;;;0.50;0.50;;;;;;;12.89;72.70;99893.31;4960025;23;20248;-80
2021/12/31 04:52:39;;;;;;;0.60;0.60;;;;;;;12.99;72.19;99885.53;5055916;23;20225;-80
2021/12/31 04:56:16;;;;;;;0.87;0.70;;;;;;;12.86;72.88;99894.59;4976140;23;20212;-80
2021/12/31 04:58:49;;;;;;;0.70;0.70;;;;;;;12.85;72.96;99892.97;4951887;23;20239;-79
2021/12/31 05:01:40;;;;;;;0.73;0.73;;;;;;;12.89;73.33;99904.91;5056791;23;21298;-81
2021/12/31 05:04:37;;;;;;;0.97;0.60;;;;;;;12.95;72.73;99893.22;4929749;28;20278;-81
2021/12/31 05:11:22;;;;;;;1.00;0.70;;;;;;;12.84;73.12;99914.69;4971868;23;20208;-79
2021/12/31 05:15:01;;;;;;;1.17;0.63;;;;;;;12.68;73.55;99916.97;4956185;23;20241;-80
2021/12/31 05:17:49;;;;;;;0.77;0.67;;;;;;;12.63;73.44;99929.44;4966551;23;20242;-82
2021/12/31 05:21:19;;;;;;;2.93;0.70;;;;;;;12.65;73.93;99935.41;4968116;23;20257;-81
2021/12/31 05:23:58;;;;;;;0.80;0.80;;;;;;;12.48;74.20;99937.06;4961405;28;20201;-79
2021/12/31 05:27:04;;;;;;;1.07;0.80;;;;;;;12.46;74.30;99934.59;5055025;23;20222;-80
2021/12/31 05:29:40;;;;;;;1.43;0.80;;;;;;;12.46;74.22;99934.59;4961279;28;20205;-80
2021/12/31 05:33:10;;;;;;;3.70;0.90;;;;;;;12.40;74.34;99929.31;4973840;23;20221;-80
2021/12/31 05:36:44;;;;;;;0.93;0.87;;;;;;;12.49;73.64;99926.09;4926599;23;20209;-80
2021/12/31 05:39:44;;;;;;;1.70;0.90;;;;;;;12.56;73.58;99940.25;4975244;23;20253;-80
2021/12/31 05:42:55;;;;;;;0.97;0.97;;;;;;;12.60;73.08;99930.69;4952448;23;20244;-82
2021/12/31 05:46:14;;;;;;;0.90;0.90;;;;;;;12.66;73.63;99932.50;4960444;28;20205;-80
2021/12/31 05:49:29;;;;;;;1.13;0.93;;;;;;;12.63;73.78;99935.66;5046968;23;20224;-80
2021/12/31 05:52:29;;;;;;;0.77;0.77;;;;;;;12.62;73.37;99938.56;4917054;28;20252;-79
2021/12/31 05:56:20;;;;;;;1.20;0.80;;;;;;;12.76;72.83;99931.97;4974366;23;20213;-80
2021/12/31 05:59:22;;;;;;;1.87;0.90;;;;;;;12.60;73.11;99936.06;4957549;28;20229;-80
2021/12/31 06:02:18;;;;;;;0.93;0.93;;;;;;;12.68;72.93;99938.47;4969840;23;20209;-80
2021/12/31 06:04:57;;;;;;;0.70;0.70;;;;;;;12.69;72.54;99950.06;4940019;29;20230;-80
2021/12/31 06:08:13;;;;;;;0.60;0.60;;;;;;;12.83;72.43;99937.28;4948485;23;20239;-80
2021/12/31 06:11:36;;;;;;;0.70;0.70;;;;;;;12.68;71.97;99927.72;4968728;23;20639;-81
2021/12/31 06:14:54;;;;;;;1.00;0.60;;;;;;;12.78;71.94;99936.06;4929254;23;20229;-80
2021/12/31 06:17:51;;;;;;;0.67;0.60;;;;;;;12.72;72.22;99941.53;4960739;23;20229;-80
2021/12/31 06:21:31;;;;;;;0.60;0.50;;;;;;;12.68;72.06;99927.72;4961930;23;20248;-81
2021/12/31 06:24:59;;;;;;;0.67;0.67;;;;;;;12.84;71.38;99938.88;5044994;23;20233;-81
2021/12/31 06:28:12;;;;;;;0.60;0.60;;;;;;;12.96;71.21;99931.72;5044014;23;20225;-80
2021/12/31 06:31:11;;;;;;;0.60;0.60;;;;;;;12.93;71.07;99942.91;4954482;29;20221;-81
2021/12/31 06:34:29;;;;;;;0.60;0.60;;;;;;;12.78;71.41;99935.25;4960111;23;20296;-81
2021/12/31 06:37:36;;;;;;;0.60;0.60;;;;;;;12.79;71.39;99948.47;4954366;29;20545;-80
2021/12/31 06:40:35;;;;;;;0.50;0.50;;;;;;;12.78;71.79;99949.50;4952398;29;20221;-80
2021/12/31 06:43:49;;;;;;;1.43;0.60;;;;;;;12.97;71.15;99963.72;4960227;23;20221;-80
2021/12/31 06:46:55;;;;;;;0.80;0.80;;;;;;;13.00;70.80;99962.47;5134328;23;20196;-80
2021/12/31 06:49:39;;;;;;;0.80;0.80;;;;;;;12.94;70.57;99969.59;4932935;23;20253;-81
2021/12/31 06:53:22;;;;;;;0.70;0.50;;;;;;;12.98;70.17;99973.44;4888972;29;20196;-80
2021/12/31 06:56:25;;;;;;;0.80;0.80;;;;;;;13.02;70.25;99966.56;4918120;23;20235;-80
2021/12/31 06:59:12;;;;;;;0.53;0.50;;;;;;;13.08;69.90;99954.09;4952428;29;20244;-81
2021/12/31 07:02:20;;;;;;;0.40;0.40;;;;;;;13.17;69.43;99969.72;4907594;29;20235;-81
2021/12/31 07:05:14;;;;;;;0.47;0.40;;;;;;;13.33;68.66;99959.38;4977897;23;20237;31
2021/12/31 07:08:06;;;;;;;1.10;0.50;;;;;;;13.25;68.38;99954.31;5032467;23;20234;-81
2021/12/31 07:11:00;;;;;;;0.47;0.47;;;;;;;13.31;68.18;99964.13;4930962;23;20240;-81
2021/12/31 07:13:52;;;;;;;0.60;0.50;;;;;;;13.34;67.97;99969.91;4939502;29;20198;-81
2021/12/31 07:17:34;;;;;;;0.73;0.43;;;;;;;13.39;68.03;99977.28;4961536;23;20225;-81
2021/12/31 07:20:57;;;;;;;0.93;0.40;;;;;;;13.62;66.45;99974.66;4962889;23;20235;-81
2021/12/31 07:24:24;;;;;;;1.33;0.30;;;;;;;13.75;65.77;99974.44;4985885;23;20248;-81
2021/12/31 07:27:38;;;;;;;0.53;0.53;;;;;;;13.93;65.70;99998.59;4975494;23;20240;-81
2021/12/31 07:31:12;;;;;;;1.37;0.40;;;;;;;14.07;65.10;99999.19;4952911;23;20305;-81
2021/12/31 07:35:01;;;;;;;0.30;0.30;;;;;;;14.22;65.01;99999.56;5174316;23;20233;-81
2021/12/31 07:37:38;;;;;;;0.67;0.60;;;;;;;14.21;64.73;99997.91;4947049;23;20231;-82
2021/12/31 07:46:54;;;;;;;0.37;0.37;;;;;;;14.34;64.49;100007.63;4965527;23;20248;-87
2021/12/31 07:49:51;;;;;;;2.10;0.70;;;;;;;14.66;63.07;100008.09;4963805;23;20238;-82
2021/12/31 07:52:21;;;;;;;0.70;0.70;;;;;;;14.49;63.53;100002.63;4943210;23;20238;-80
2021/12/31 07:55:23;;;;;;;0.40;0.40;;;;;;;14.57;64.00;100021.13;4943349;23;20263;-80
2021/12/31 07:58:39;;;;;;;0.53;0.53;;;;;;;14.53;63.94;100018.09;4952431;29;20366;-90
2021/12/31 08:02:02;;;;;;;0.73;0.50;;;;;;;14.52;64.02;100026.41;4967686;23;20221;-88
2021/12/31 08:04:35;;;;;;;1.27;0.60;;;;;;;14.50;64.30;100033.91;4927034;29;20328;-92
2021/12/31 08:07:02;;;;;;;0.73;0.43;;;;;;;14.58;63.80;100022.78;4921336;29;20234;-82
2021/12/31 08:09:29;;;;;;;0.40;0.40;;;;;;;14.47;64.02;100010.94;4925434;29;20286;-90
2021/12/31 08:11:56;;;;;;;0.83;0.50;;;;;;;14.59;63.91;100024.41;4908200;29;20257;-85
2021/12/31 08:14:22;;;;;;;0.40;0.40;;;;;;;14.69;63.67;100013.03;4907054;29;20241;-85
2021/12/31 08:16:50;;;;;;;0.30;0.30;;;;;;;14.68;63.30;100009.50;4908752;29;20349;-86
2021/12/31 08:19:17;;;;;;;0.40;0.33;;;;;;;14.81;63.41;100033.53;4907123;29;20311;-84
2021/12/31 08:21:45;;;;;;;0.40;0.40;;;;;;;14.78;63.59;100025.91;4920404;29;20227;-89
2021/12/31 08:24:12;;;;;;;0.30;0.30;;;;;;;14.81;63.56;100017.34;4905843;29;20236;-90
2021/12/31 08:26:39;;;;;;;0.40;0.40;;;;;;;14.96;63.11;100023.06;4890605;29;20239;-85
2021/12/31 08:29:08;;;;;;;0.40;0.40;;;;;;;14.85;63.09;100020.38;4906135;29;20231;-91
2021/12/31 08:31:35;;;;;;;0.43;0.43;;;;;;;14.95;62.97;100023.28;4921817;29;20235;-87
2021/12/31 08:34:02;;;;;;;1.03;0.50;;;;;;;14.95;62.85;100012.50;4905257;29;20239;-86
2021/12/31 08:36:29;;;;;;;0.50;0.50;;;;;;;15.01;62.69;100024.22;4920606;29;20253;-88
2021/12/31 08:38:56;;;;;;;1.07;0.50;;;;;;;15.03;62.77;100017.50;4921963;29;20632;-86
2021/12/31 08:41:23;;;;;;;0.57;0.50;;;;;;;15.06;62.87;100014.34;4920967;29;20235;-80
2021/12/31 08:44:10;;;;;;;0.80;0.60;;;;;;;15.05;62.97;100018.09;4934823;29;20288;-92
2021/12/31 08:46:38;;;;;;;0.73;0.70;;;;;;;15.11;62.78;100025.25;4919409;29;20262;-90
2021/12/31 08:49:05;;;;;;;0.80;0.60;;;;;;;15.08;62.87;100014.09;4903726;29;20242;-88
2021/12/31 08:51:32;;;;;;;0.47;0.47;;;;;;;15.16;62.66;100022.66;4903196;29;20526;-94
2021/12/31 08:54:00;;;;;;;0.63;0.50;;;;;;;15.18;62.75;100019.69;4912912;29;20235;-95
2021/12/31 08:56:27;;;;;;;0.50;0.40;;;;;;;15.21;62.43;100025.44;4884041;29;20554;-93
2021/12/31 08:58:55;;;;;;;1.43;0.60;;;;;;;15.30;61.70;99997.00;4898756;29;20240;-93
2021/12/31 09:01:22;;;;;;;0.47;0.47;;;;;;;15.55;59.99;100003.97;4924146;29;20264;-90
2021/12/31 09:03:49;;;;;;;0.60;0.43;;;;;;;15.55;59.53;99998.56;4902257;29;20236;-88
2021/12/31 09:06:18;;;;;;;0.57;0.57;;;;;;;15.68;59.34;100017.16;4885783;29;20271;-92
2021/12/31 09:08:45;;;;;;;0.67;0.40;;;;;;;15.75;59.06;100015.97;4902363;29;20244;-89
2021/12/31 09:11:13;;;;;;;0.53;0.40;;;;;;;15.77;58.84;100004.91;4919772;29;20238;-92
2021/12/31 09:13:47;;;;;;;0.40;0.40;;;;;;;15.70;58.47;99988.84;4904889;29;20259;-88
2021/12/31 09:16:14;;;;;;;0.40;0.40;;;;;;;15.85;58.43;100004.50;4905340;29;20326;-93
2021/12/31 09:18:41;;;;;;;0.50;0.50;;;;;;;15.89;58.25;100010.22;4904850;29;20284;-94
2021/12/31 09:21:08;;;;;;;0.50;0.50;;;;;;;15.84;59.00;100011.78;4920466;29;20242;-94
2021/12/31 09:23:35;;;;;;;0.40;0.40;;;;;;;15.92;58.70;100009.72;4920468;29;20236;-93
2021/12/31 09:26:01;;;;;;;0.33;0.33;;;;;;;15.85;58.58;99997.22;4904153;29;20240;-94
2021/12/31 09:28:28;;;;;;;0.40;0.40;;;;;;;15.92;58.49;100005.16;4920384;29;20245;-89
2021/12/31 09:31:01;;;;;;;0.57;0.40;;;;;;;15.92;58.35;99996.22;4920761;29;20640;-93
2021/12/31 09:33:29;;;;;;;0.50;0.40;;;;;;;15.94;58.86;100013.84;4889201;29;20243;-88
2021/12/31 09:35:55;;;;;;;0.50;0.50;;;;;;;15.97;59.62;100009.81;4888982;29;20319;-94
2021/12/31 09:38:22;;;;;;;0.50;0.50;;;;;;;16.00;59.09;100014.75;4904249;29;20263;-95
2021/12/31 09:40:49;;;;;;;0.37;0.37;;;;;;;15.97;59.13;100017.91;4904560;29;20240;-94
2021/12/31 09:43:16;;;;;;;0.50;0.50;;;;;;;15.97;58.95;100017.91;4904534;29;20310;-90
2021/12/31 09:45:45;;;;;;;0.50;0.50;;;;;;;16.03;58.80;100025.88;4903763;29;20238;-94
2021/12/31 09:48:18;;;;;;;0.60;0.60;;;;;;;15.91;59.48;99997.31;4919716;29;20245;-90
2021/12/31 09:50:48;;;;;;;1.37;0.50;;;;;;;15.97;59.27;100004.41;4904619;29;20242;-94
2021/12/31 09:53:15;;;;;;;0.40;0.40;;;;;;;16.04;59.29;100013.19;4919959;29;20250;-90
2021/12/31 09:55:47;;;;;;;0.67;0.50;;;;;;;16.04;59.38;100002.38;4904005;29;20347;-95
2021/12/31 09:58:16;;;;;;;0.57;0.57;;;;;;;16.11;58.47;100006.53;4903691;29;20236;-94
2021/12/31 10:00:45;;;;;;;0.50;0.50;;;;;;;16.22;58.01;100011.06;4919816;29;20603;-96
2021/12/31 10:03:38;;;;;;;0.60;0.60;;;;;;;16.13;58.64;100009.84;4904289;29;20327;-88
2021/12/31 10:06:08;;;;;;;1.13;0.60;;;;;;;16.13;57.96;100007.13;4919453;29;20287;-94
2021/12/31 10:08:43;;;;;;;1.30;0.50;;;;;;;16.20;57.39;100009.66;4903996;29;20263;-88
2021/12/31 10:11:17;;;;;;;0.80;0.60;;;;;;;16.15;57.73;100006.84;4904099;29;20243;-93
2021/12/31 10:13:45;;;;;;;0.70;0.50;;;;;;;16.17;58.06;99993.94;4904669;29;20235;-94
2021/12/31 10:16:33;;;;;;;0.40;0.40;;;;;;;16.32;57.21;99996.03;4888113;29;20308;-85
2021/12/31 10:19:07;;;;;;;0.80;0.70;;;;;;;16.17;57.69;99975.84;4904221;29;20254;-89
2021/12/31 10:21:40;;;;;;;0.80;0.40;;;;;;;16.23;57.28;99982.97;4919969;29;20241;-93
2021/12/31 10:24:23;;;;;;;0.50;0.50;;;;;;;16.38;56.34;99982.34;4903615;29;20327;-89
2021/12/31 10:26:57;;;;;;;0.70;0.53;;;;;;;16.39;56.88;99992.09;4935445;29;20696;-90
2021/12/31 10:29:25;;;;;;;0.47;0.47;;;;;;;16.28;57.93;99979.50;4903757;29;20598;-92
2021/12/31 10:31:53;;;;;;;0.83;0.60;;;;;;;16.34;57.26;99969.56;4919486;29;20255;-93
2021/12/31 10:34:36;;;;;;;0.73;0.60;;;;;;;16.38;57.23;99976.94;4918212;29;20255;-95
2021/12/31 10:37:14;;;;;;;0.47;0.47;;;;;;;16.43;57.06;99968.88;4903719;29;20238;-95
2021/12/31 10:39:41;;;;;;;0.53;0.40;;;;;;;16.27;57.37;99967.06;4920366;29;20663;-93
2021/12/31 10:42:14;;;;;;;0.53;0.53;;;;;;;16.32;57.57;99969.84;4904136;29;20241;-93
2021/12/31 10:44:50;;;;;;;0.40;0.40;;;;;;;16.43;57.00;99951.84;4904142;29;20236;-94
2021/12/31 10:47:33;;;;;;;0.67;0.50;;;;;;;16.44;57.42;99964.31;4910645;29;20337;-93
2021/12/31 10:50:00;;;;;;;0.50;0.50;;;;;;;16.43;57.72;99954.53;4918639;29;20240;-90
2021/12/31 10:53:01;;;;;;;0.40;0.40;;;;;;;16.36;57.30;99945.81;4935418;29;20320;-93
2021/12/31 10:55:30;;;;;;;0.93;0.40;;;;;;;16.23;57.31;99950.53;4936832;29;20655;-90
2021/12/31 10:58:03;;;;;;;0.50;0.50;;;;;;;16.33;57.33;99939.00;4923291;29;20300;-96
2021/12/31 11:00:36;;;;;;;0.40;0.40;;;;;;;16.53;56.42;99933.06;4923594;29;20242;-90
2021/12/31 11:03:04;;;;;;;0.90;0.60;;;;;;;16.51;56.52;99927.91;4922956;29;20637;-95
2021/12/31 11:05:31;;;;;;;0.50;0.50;;;;;;;16.57;55.39;99920.66;4922880;29;20321;-93
2021/12/31 11:08:04;;;;;;;0.87;0.50;;;;;;;16.56;55.87;99932.56;4923043;29;20647;-93
2021/12/31 11:10:38;;;;;;;0.50;0.50;;;;;;;16.64;55.49;99932.16;4923304;29;20235;-89
2021/12/31 11:13:19;;;;;;;0.40;0.40;;;;;;;16.62;55.13;99928.88;4921653;29;20243;-94
2021/12/31 11:15:49;;;;;;;0.47;0.40;;;;;;;16.56;55.41;99910.94;4907151;29;20240;-89
2021/12/31 11:18:23;;;;;;;0.50;0.50;;;;;;;16.61;55.07;99909.13;4906981;29;20261;-92
2021/12/31 11:21:01;;;;;;;0.40;0.40;;;;;;;16.68;54.98;99911.63;4908224;29;20233;-88
2021/12/31 11:23:30;;;;;;;0.50;0.50;;;;;;;16.68;54.60;99892.69;4907319;29;20248;-82
2021/12/31 11:26:09;;;;;;;0.43;0.43;;;;;;;16.82;54.69;99902.06;4906605;29;20235;-87
2021/12/31 11:28:44;;;;;;;0.40;0.40;;;;;;;16.71;55.21;99878.66;4922941;29;20281;-91
2021/12/31 11:31:17;;;;;;;0.50;0.40;;;;;;;16.79;54.51;99888.22;4904976;29;20233;-90
2021/12/31 11:34:12;;;;;;;0.67;0.60;;;;;;;16.79;54.15;99888.22;4906984;29;20259;-95
2021/12/31 11:36:52;;;;;;;1.43;0.40;;;;;;;16.74;53.92;99880.88;4931055;29;20741;-95
2021/12/31 11:39:34;;;;;;;0.50;0.43;;;;;;;16.68;54.24;99885.41;4922906;29;20259;-91
2021/12/31 11:42:08;;;;;;;1.17;0.50;;;;;;;16.69;54.03;99887.06;4922361;29;20248;-85
2021/12/31 11:44:38;;;;;;;0.50;0.50;;;;;;;16.75;54.56;99874.38;4906849;29;20243;-94
2021/12/31 11:47:16;;;;;;;0.60;0.60;;;;;;;16.93;53.69;99881.34;4906811;29;20232;-87
2021/12/31 11:49:45;;;;;;;0.83;0.60;;;;;;;16.78;54.71;99879.28;4890926;29;20240;-91
2021/12/31 11:52:20;;;;;;;0.90;0.63;;;;;;;16.92;54.69;99885.94;4905612;29;20234;-88
2021/12/31 11:55:17;;;;;;;0.87;0.60;;;;;;;16.92;53.99;99885.94;4922695;29;20616;-89
2021/12/31 11:57:44;;;;;;;0.87;0.60;;;;;;;16.89;54.07;99875.59;4938594;29;20233;-86
2021/12/31 12:00:27;;;;;;;0.50;0.50;;;;;;;16.89;54.45;99874.81;4905430;29;20289;-88
2021/12/31 12:02:55;;;;;;;1.07;0.43;;;;;;;16.81;53.94;99861.72;4896312;29;20232;-84
2021/12/31 12:05:26;;;;;;;0.60;0.60;;;;;;;16.87;53.48;99856.13;4916514;29;20685;-84
2021/12/31 12:07:54;;;;;;;0.50;0.50;;;;;;;16.78;54.11;99865.78;4887206;29;20234;-93
2021/12/31 12:10:26;;;;;;;0.57;0.57;;;;;;;16.94;53.49;99853.19;4902332;29;26082;-89
2021/12/31 12:12:57;;;;;;;0.47;0.47;;;;;;;17.05;53.26;99852.22;4871534;29;20634;-91
2021/12/31 12:15:27;;;;;;;0.70;0.50;;;;;;;17.11;53.22;99860.16;4886262;29;20324;-94
2021/12/31 12:17:54;;;;;;;0.97;0.60;;;;;;;17.08;53.01;99840.88;4902202;29;20242;-93
2021/12/31 12:20:25;;;;;;;0.50;0.50;;;;;;;16.99;53.30;99837.00;4886692;29;20233;-95
2021/12/31 12:22:56;;;;;;;0.77;0.63;;;;;;;17.02;53.48;99839.22;4885773;29;20246;-94
2021/12/31 12:25:25;;;;;;;1.60;0.80;;;;;;;17.12;53.12;99844.72;4902574;29;20234;-95
2021/12/31 12:28:06;;;;;;;2.23;0.60;;;;;;;17.08;53.54;99841.69;4871582;29;20650;-96
2021/12/31 12:30:35;;;;;;;0.40;0.37;;;;;;;17.21;52.59;99829.66;4901601;29;20316;-96
2021/12/31 12:33:20;;;;;;;0.50;0.50;;;;;;;17.09;53.20;99820.88;4902493;29;20328;-93
2021/12/31 12:35:49;;;;;;;0.40;0.40;;;;;;;17.16;52.81;99833.13;4904739;29;20324;-95
2021/12/31 12:38:19;;;;;;;0.40;0.40;;;;;;;17.24;52.42;99837.25;4893344;29;20230;-95
2021/12/31 12:40:52;;;;;;;0.57;0.57;;;;;;;17.23;52.35;99824.78;4905807;29;20229;-94
2021/12/31 12:43:26;;;;;;;0.40;0.40;;;;;;;17.26;52.58;99826.16;4921152;29;20257;-96
2021/12/31 12:45:56;;;;;;;0.60;0.60;;;;;;;17.20;52.63;99817.19;4921242;29;20316;-92
2021/12/31 12:48:36;;;;;;;1.33;0.53;;;;;;;17.19;52.40;99818.25;4905394;29;20237;-96
2021/12/31 12:51:14;;;;;;;0.57;0.50;;;;;;;17.10;52.81;99817.91;4920831;29;20355;-95
2021/12/31 12:53:45;;;;;;;0.40;0.40;;;;;;;17.09;52.84;99804.63;4921007;29;20319;-92
2021/12/31 12:56:17;;;;;;;2.20;0.60;;;;;;;17.21;52.76;99826.13;4924024;29;20229;-96
2021/12/31 12:58:55;;;;;;;2.00;0.50;;;;;;;17.15;53.52;99815.25;4940530;29;20213;-96
2021/12/31 13:01:37;;;;;;;0.60;0.60;;;;;;;17.07;53.38;99817.63;4939991;29;21577;-95
2021/12/31 13:04:08;;;;;;;1.23;0.67;;;;;;;17.08;53.77;99811.91;4939765;29;20266;-96
2021/12/31 13:06:36;;;;;;;0.87;0.70;;;;;;;17.15;54.38;99831.50;4924331;29;20236;-96
2021/12/31 13:09:13;;;;;;;0.50;0.50;;;;;;;17.07;54.73;99826.56;4939771;29;20233;-95
2021/12/31 13:11:43;;;;;;;0.60;0.60;;;;;;;17.12;54.12;99828.50;4939614;29;20229;-94
2021/12/31 13:14:17;;;;;;;0.80;0.70;;;;;;;17.06;54.12;99824.91;4923410;29;20267;-95
2021/12/31 13:16:49;;;;;;;0.60;0.50;;;;;;;17.06;54.31;99818.69;4956960;29;20240;-92
2021/12/31 13:19:16;;;;;;;0.77;0.50;;;;;;;16.98;54.22;99811.03;4907609;29;20267;-93
2021/12/31 13:21:43;;;;;;;0.80;0.63;;;;;;;17.10;54.00;99811.69;4924015;29;20237;-95
2021/12/31 13:24:20;;;;;;;1.53;0.60;;;;;;;17.10;53.53;99800.84;4939583;29;20547;-94
2021/12/31 13:26:55;;;;;;;1.07;0.80;;;;;;;17.12;53.55;99813.03;4908273;29;20228;-94